Time;durP1;ratioP1;P1;durP2;ratioP2;P2;SDS_P1;SDS_P2;PMS_P1;PMS_P2;Temp;Humidity;BMP_temperature;BMP_pressure;BME280_temperature;BME280_humidity;BME280_pressure;Samples;Min_cycle;Max_cycle;Signal;HPM_P1;HPM_P2
2021/05/12 00:01:13;;;;;;;;;;;;;;;12.72;83.26;99304.72;2186621;40;19943;-79
2021/05/12 00:02:45;;;;;;;;;;;;;;;12.73;83.22;99301.03;2185287;40;19935;-78
2021/05/12 00:04:16;;;;;;;;;;;;;;;12.70;83.05;99306.72;2186902;40;20280;-78
2021/05/12 00:05:47;;;;;;;;;;;;;;;12.70;83.17;99310.25;2185203;40;19946;-79
2021/05/12 00:07:18;;;;;;;;;;;;;;;12.70;83.21;99298.69;2187041;40;19942;-80
2021/05/12 00:08:49;;;;;;;;;;;;;;;12.68;83.17;99306.06;2189569;40;19935;-79
2021/05/12 00:10:21;;;;;;;;;;;;;;;12.69;83.22;99303.22;2189391;40;19942;-78
2021/05/12 00:11:51;;;;;;;;;;;;;;;12.71;83.30;99309.22;2190929;40;19930;-78
2021/05/12 00:13:23;;;;;;;;;;;;;;;12.74;83.26;99302.69;2191272;40;20044;-78
2021/05/12 00:14:53;;;;;;;;;;;;;;;12.74;83.18;99302.69;2190785;40;20323;-78
2021/05/12 00:16:25;;;;;;;;;;;;;;;12.71;82.98;99309.22;2191186;40;20045;-77
2021/05/12 00:17:56;;;;;;;;;;;;;;;12.68;83.09;99309.59;2187253;40;20021;-77
2021/05/12 00:19:27;;;;;;;;;;;;;;;12.69;83.11;99310.41;2192710;40;20026;-78
2021/05/12 00:20:59;;;;;;;;;;;;;;;12.68;83.04;99303.38;2188469;40;19966;-79
2021/05/12 00:22:35;;;;;;;;;;;;;;;12.72;83.08;99302.84;2190290;40;20487;-78
2021/05/12 00:24:06;;;;;;;;;;;;;;;12.72;83.08;99300.16;2190903;40;19962;-78
2021/05/12 00:25:37;;;;;;;;;;;;;;;12.71;83.01;99308.41;2192459;40;20025;-78
2021/05/12 00:27:08;;;;;;;;;;;;;;;12.71;82.94;99297.69;2189155;40;19950;-78
2021/05/12 00:28:39;;;;;;;;;;;;;;;12.69;82.95;99305.91;2192235;40;19958;-79
2021/05/12 00:30:12;;;;;;;;;;;;;;;12.69;82.96;99305.06;2190745;40;19938;-78
2021/05/12 00:31:45;;;;;;;;;;;;;;;12.66;82.92;99303.56;2192290;40;19947;-78
2021/05/12 00:33:17;;;;;;;;;;;;;;;12.71;83.05;99316.44;2190606;40;19941;-77
2021/05/12 00:34:47;;;;;;;;;;;;;;;12.73;82.97;99303.69;2191866;40;19934;-77
2021/05/12 00:36:18;;;;;;;;;;;;;;;12.69;82.88;99308.59;2191583;40;19945;-78
2021/05/12 00:37:49;;;;;;;;;;;;;;;12.67;82.98;99299.88;2191741;40;19965;-78
2021/05/12 00:39:20;;;;;;;;;;;;;;;12.64;83.01;99309.13;2191776;40;19934;-78
2021/05/12 00:40:51;;;;;;;;;;;;;;;12.67;83.06;99307.06;2193180;40;19953;-78
2021/05/12 00:42:27;;;;;;;;;;;;;;;12.70;83.20;99306.72;2141740;40;19938;-78
2021/05/12 00:43:58;;;;;;;;;;;;;;;12.71;82.83;99311.09;2176819;40;20407;-78
2021/05/12 00:45:29;;;;;;;;;;;;;;;12.68;82.83;99311.44;2181274;40;19949;-79
2021/05/12 00:47:03;;;;;;;;;;;;;;;12.65;83.06;99307.25;2188540;40;19943;-78
2021/05/12 00:48:34;;;;;;;;;;;;;;;12.63;83.02;99309.28;2190042;40;19953;-79
2021/05/12 00:50:07;;;;;;;;;;;;;;;12.64;83.03;99310.94;2192848;40;19941;-79
2021/05/12 00:51:37;;;;;;;;;;;;;;;12.63;82.99;99315.50;2189512;40;19939;-79
2021/05/12 00:53:09;;;;;;;;;;;;;;;12.62;82.96;99312.97;2193332;40;19942;-78
2021/05/12 00:54:40;;;;;;;;;;;;;;;12.60;82.97;99318.50;2192104;40;19943;-79
2021/05/12 00:56:12;;;;;;;;;;;;;;;12.62;82.94;99313.81;2192883;40;19978;-79
2021/05/12 00:57:43;;;;;;;;;;;;;;;12.62;82.97;99307.59;2191242;40;20172;-79
2021/05/12 00:59:14;;;;;;;;;;;;;;;12.60;82.97;99318.50;2189662;40;19934;-78
2021/05/12 01:00:46;;;;;;;;;;;;;;;12.59;82.82;99319.53;2190184;40;19934;-79
2021/05/12 01:02:18;;;;;;;;;;;;;;;12.56;82.88;99324.41;2191819;40;19934;-80
2021/05/12 01:03:49;;;;;;;;;;;;;;;12.55;82.93;99320.91;2192125;40;19938;-79
2021/05/12 01:05:23;;;;;;;;;;;;;;;12.58;82.83;99322.38;2183856;40;19934;-79
2021/05/12 01:06:54;;;;;;;;;;;;;;;12.59;82.75;99319.53;2189622;40;20035;-79
2021/05/12 01:08:26;;;;;;;;;;;;;;;12.60;82.65;99323.88;2191889;40;19934;-80
2021/05/12 01:09:57;;;;;;;;;;;;;;;12.58;82.71;99325.06;2193148;40;19938;-79
2021/05/12 01:11:28;;;;;;;;;;;;;;;12.58;82.73;99323.22;2190379;40;19945;-78
2021/05/12 01:13:00;;;;;;;;;;;;;;;12.58;82.61;99325.88;2193290;40;19934;-79
2021/05/12 01:14:30;;;;;;;;;;;;;;;12.58;82.61;99331.25;2191660;40;19938;-78
2021/05/12 01:16:01;;;;;;;;;;;;;;;12.59;82.44;99335.59;2193367;40;20045;-79
2021/05/12 01:17:33;;;;;;;;;;;;;;;12.59;82.41;99335.59;2192037;40;19948;-79
2021/05/12 01:19:04;;;;;;;;;;;;;;;12.60;82.39;99333.78;2192170;40;19938;-79
2021/05/12 01:20:45;;;;;;;;;;;;;;;12.57;82.35;99342.97;2153709;41;19944;-79
2021/05/12 01:22:16;;;;;;;;;;;;;;;12.55;82.37;99349.53;2180338;40;20211;-78
2021/05/12 01:23:48;;;;;;;;;;;;;;;12.53;82.44;99351.56;2186282;40;19939;-78
2021/05/12 01:25:19;;;;;;;;;;;;;;;12.53;82.53;99349.72;2191426;40;19946;-79
2021/05/12 01:26:50;;;;;;;;;;;;;;;12.49;82.62;99356.44;2190683;40;19934;-77
2021/05/12 01:28:21;;;;;;;;;;;;;;;12.44;82.77;99359.63;2190337;40;20247;-78
2021/05/12 01:29:53;;;;;;;;;;;;;;;12.43;82.91;99359.81;2193136;40;20342;-78
2021/05/12 01:31:28;;;;;;;;;;;;;;;12.36;82.94;99356.16;2188169;40;19938;-79
2021/05/12 01:33:00;;;;;;;;;;;;;;;12.27;83.04;99374.97;2194031;40;19934;-77
2021/05/12 01:34:31;;;;;;;;;;;;;;;12.22;83.36;99363.91;2194503;40;20262;-78
2021/05/12 01:36:03;;;;;;;;;;;;;;;12.17;83.42;99364.41;2190976;40;19938;-79
2021/05/12 01:37:35;;;;;;;;;;;;;;;12.11;83.59;99367.78;2193048;40;19949;-78
2021/05/12 01:39:06;;;;;;;;;;;;;;;12.07;83.75;99363.78;2188925;40;19942;-79
2021/05/12 01:40:37;;;;;;;;;;;;;;;12.01;83.83;99359.94;2192753;40;19950;-78
2021/05/12 01:42:09;;;;;;;;;;;;;;;11.98;83.97;99370.16;2191415;40;19934;-79
2021/05/12 01:43:39;;;;;;;;;;;;;;;11.92;84.21;99371.63;2192730;40;19938;-79
2021/05/12 01:45:11;;;;;;;;;;;;;;;11.86;84.41;99378.50;2189845;40;19955;-77
2021/05/12 01:46:43;;;;;;;;;;;;;;;11.84;84.58;99368.97;2193510;40;19938;-77
2021/05/12 01:48:15;;;;;;;;;;;;;;;11.85;84.64;99378.69;2192259;40;19939;-78
2021/05/12 01:49:48;;;;;;;;;;;;;;;11.80;84.73;99368.47;2189252;40;19946;-78
2021/05/12 01:51:20;;;;;;;;;;;;;;;11.75;84.83;99368.16;2179093;40;19946;-79
2021/05/12 01:52:52;;;;;;;;;;;;;;;11.73;84.97;99369.31;2191742;40;19946;-79
2021/05/12 01:54:23;;;;;;;;;;;;;;;11.70;85.18;99374.03;2180032;40;19946;-79
2021/05/12 01:55:54;;;;;;;;;;;;;;;11.71;85.38;99375.66;2192933;40;20219;-78
2021/05/12 01:57:26;;;;;;;;;;;;;;;11.77;85.39;99362.63;2190702;40;19949;-78
2021/05/12 01:58:57;;;;;;;;;;;;;;;11.76;85.34;99369.00;2191626;40;20014;-78
2021/05/12 02:00:29;;;;;;;;;;;;;;;11.76;85.33;99372.50;2190403;40;19934;-79
2021/05/12 02:02:00;;;;;;;;;;;;;;;11.73;85.27;99370.16;2191743;40;20295;-79
2021/05/12 02:03:31;;;;;;;;;;;;;;;11.68;85.36;99368.00;2191301;40;19938;-78
2021/05/12 02:05:02;;;;;;;;;;;;;;;11.65;85.52;99378.22;2193471;40;19934;-79
2021/05/12 02:06:34;;;;;;;;;;;;;;;11.65;85.59;99372.84;2192947;40;19951;-79
2021/05/12 02:08:06;;;;;;;;;;;;;;;11.67;85.69;99368.16;2193582;40;19946;-79
2021/05/12 02:09:39;;;;;;;;;;;;;;;11.66;85.64;99369.19;2192982;40;19993;-77
2021/05/12 02:11:10;;;;;;;;;;;;;;;11.70;85.59;99368.66;2197300;40;19989;-78
2021/05/12 02:12:41;;;;;;;;;;;;;;;11.64;85.50;99369.31;2193584;40;19954;-77
2021/05/12 02:14:12;;;;;;;;;;;;;;;11.62;85.53;99376.69;2193341;40;19952;-77
2021/05/12 02:15:44;;;;;;;;;;;;;;;11.58;85.45;99377.19;2191415;40;19939;-79
2021/05/12 02:17:15;;;;;;;;;;;;;;;11.54;85.51;99369.50;2192640;40;19942;-78
2021/05/12 02:18:46;;;;;;;;;;;;;;;11.55;85.63;99383.72;2190667;40;19945;-79
2021/05/12 02:20:17;;;;;;;;;;;;;;;11.54;85.58;99382.03;2193503;40;20020;-77
2021/05/12 02:21:49;;;;;;;;;;;;;;;11.53;85.62;99375.00;2200112;40;19945;-79
2021/05/12 02:23:22;;;;;;;;;;;;;;;11.52;85.52;99379.53;2190848;40;19954;-78
2021/05/12 02:24:53;;;;;;;;;;;;;;;11.52;85.57;99370.69;2186247;40;19942;-78
2021/05/12 02:26:24;;;;;;;;;;;;;;;11.59;85.48;99371.69;2176005;40;19935;-78
2021/05/12 02:27:55;;;;;;;;;;;;;;;11.59;85.31;99373.50;2179211;40;19935;-78
2021/05/12 02:29:26;;;;;;;;;;;;;;;11.55;85.09;99367.66;2181491;40;20470;-78
2021/05/12 02:30:57;;;;;;;;;;;;;;;11.50;84.99;99361.97;2184008;40;20663;-79
2021/05/12 02:32:28;;;;;;;;;;;;;;;11.49;85.07;99377.19;2166181;40;19939;-78
2021/05/12 02:34:03;;;;;;;;;;;;;;;11.53;85.09;99367.84;2185739;40;19938;-79
2021/05/12 02:35:36;;;;;;;;;;;;;;;11.55;85.00;99370.34;2182727;40;19978;-78
2021/05/12 02:37:08;;;;;;;;;;;;;;;11.55;84.81;99367.66;2184434;40;19938;-78
2021/05/12 02:38:39;;;;;;;;;;;;;;;11.54;84.50;99368.66;2180231;40;19939;-78
2021/05/12 02:40:11;;;;;;;;;;;;;;;11.54;84.53;99363.31;2184783;40;19958;-78
2021/05/12 02:41:42;;;;;;;;;;;;;;;11.57;84.45;99368.34;2174522;40;19949;-79
2021/05/12 02:43:13;;;;;;;;;;;;;;;11.56;84.27;99372.00;2185671;40;20333;-78
2021/05/12 02:44:44;;;;;;;;;;;;;;;11.56;84.28;99366.66;2182134;40;19958;-79
2021/05/12 02:46:15;;;;;;;;;;;;;;;11.57;84.20;99362.97;2189618;40;19935;-79
2021/05/12 02:47:57;;;;;;;;;;;;;;;11.57;84.00;99367.50;2183775;40;20381;-78
2021/05/12 02:49:28;;;;;;;;;;;;;;;11.59;84.09;99371.69;2178900;41;20078;-78
2021/05/12 02:50:59;;;;;;;;;;;;;;;11.59;83.91;99377.03;2182227;40;19934;-78
2021/05/12 02:52:30;;;;;;;;;;;;;;;11.59;83.68;99363.66;2191453;40;19935;-78
2021/05/12 02:54:01;;;;;;;;;;;;;;;11.62;83.82;99367.84;2188106;40;19992;-78
2021/05/12 02:55:33;;;;;;;;;;;;;;;11.63;83.65;99362.28;2184837;40;19941;-78
2021/05/12 02:57:04;;;;;;;;;;;;;;;11.64;83.68;99363.97;2184160;40;19935;-78
2021/05/12 02:58:35;;;;;;;;;;;;;;;11.66;83.65;99359.28;2185292;40;19935;-78
2021/05/12 03:00:06;;;;;;;;;;;;;;;11.70;83.58;99357.09;2182869;40;19946;-78
2021/05/12 03:01:37;;;;;;;;;;;;;;;11.70;83.39;99368.66;2186549;40;19938;-79
2021/05/12 03:03:09;;;;;;;;;;;;;;;11.67;83.18;99363.66;2183734;40;19942;-78
2021/05/12 03:04:40;;;;;;;;;;;;;;;11.65;83.26;99365.66;2185421;40;19938;-79
2021/05/12 03:06:11;;;;;;;;;;;;;;;11.63;83.15;99370.31;2184466;40;19939;-78
2021/05/12 03:07:43;;;;;;;;;;;;;;;11.64;83.27;99368.50;2185083;40;19958;-77
2021/05/12 03:09:14;;;;;;;;;;;;;;;11.64;83.14;99366.66;2184857;40;19947;-78
2021/05/12 03:10:45;;;;;;;;;;;;;;;11.63;83.13;99367.66;2186151;40;20214;-78
2021/05/12 03:12:16;;;;;;;;;;;;;;;11.64;83.03;99369.31;2184159;40;19961;-78
2021/05/12 03:13:47;;;;;;;;;;;;;;;11.65;83.07;99370.19;2185609;40;19945;-79
2021/05/12 03:15:21;;;;;;;;;;;;;;;11.64;82.96;99373.84;2185441;40;20566;-77
2021/05/12 03:16:52;;;;;;;;;;;;;;;11.65;82.96;99375.53;2190915;40;19949;-77
2021/05/12 03:18:26;;;;;;;;;;;;;;;11.64;82.89;99374.69;2107873;40;19939;-79
2021/05/12 03:19:57;;;;;;;;;;;;;;;11.66;82.97;99379.88;2173418;41;19954;-78
2021/05/12 03:21:29;;;;;;;;;;;;;;;11.69;82.92;99377.72;2149487;40;19939;-78
2021/05/12 03:23:01;;;;;;;;;;;;;;;11.68;82.63;99373.34;2179118;40;19942;-78
2021/05/12 03:24:32;;;;;;;;;;;;;;;11.67;82.72;99382.38;2140226;40;19941;-79
2021/05/12 03:26:03;;;;;;;;;;;;;;;11.66;82.49;99383.38;2178992;40;19986;-79
2021/05/12 03:27:34;;;;;;;;;;;;;;;11.65;82.64;99375.53;2176785;40;19935;-78
2021/05/12 03:29:05;;;;;;;;;;;;;;;11.64;82.67;99392.59;2181773;40;19938;-78
2021/05/12 03:30:37;;;;;;;;;;;;;;;11.67;82.78;99378.84;2180339;40;19934;-80
2021/05/12 03:32:08;;;;;;;;;;;;;;;11.68;82.65;99385.88;2186413;40;19945;-79
2021/05/12 03:33:39;;;;;;;;;;;;;;;11.65;82.56;99380.88;2183458;40;20014;-79
2021/05/12 03:35:11;;;;;;;;;;;;;;;11.61;82.49;99385.75;2186263;40;20193;-78
2021/05/12 03:36:42;;;;;;;;;;;;;;;11.61;82.66;99383.06;2188433;40;19938;-79
2021/05/12 03:38:14;;;;;;;;;;;;;;;11.58;82.64;99383.41;2173561;41;19966;-79
2021/05/12 03:39:45;;;;;;;;;;;;;;;11.58;82.70;99378.03;2180331;40;20401;-78
2021/05/12 03:41:16;;;;;;;;;;;;;;;11.61;82.72;99379.53;2186377;40;19935;-79
2021/05/12 03:42:47;;;;;;;;;;;;;;;11.64;82.72;99379.22;2185242;40;19949;-78
2021/05/12 03:44:18;;;;;;;;;;;;;;;11.66;82.68;99379.88;2184696;40;19935;-79
2021/05/12 03:45:49;;;;;;;;;;;;;;;11.63;82.65;99380.22;2186401;40;19943;-79
2021/05/12 03:47:20;;;;;;;;;;;;;;;11.63;82.68;99381.03;2187059;40;19939;-79
2021/05/12 03:48:51;;;;;;;;;;;;;;;11.60;82.58;99378.72;2193771;40;19937;-79
2021/05/12 03:50:24;;;;;;;;;;;;;;;11.59;82.61;99386.91;2193445;40;19945;-80
2021/05/12 03:51:55;;;;;;;;;;;;;;;11.62;82.66;99387.38;2194651;40;19934;-79
2021/05/12 03:53:28;;;;;;;;;;;;;;;11.61;82.63;99385.75;2191527;40;19959;-80
2021/05/12 03:54:59;;;;;;;;;;;;;;;11.58;82.61;99379.88;2188137;40;20128;-80
2021/05/12 03:56:30;;;;;;;;;;;;;;;11.56;82.64;99377.38;2186473;40;19951;-80
2021/05/12 03:58:02;;;;;;;;;;;;;;;11.53;82.68;99383.91;2186575;40;19935;-79
2021/05/12 03:59:33;;;;;;;;;;;;;;;11.54;82.79;99384.72;2177987;40;19938;-80
2021/05/12 04:01:04;;;;;;;;;;;;;;;11.55;82.81;99383.72;2188848;40;19934;-80
2021/05/12 04:02:35;;;;;;;;;;;;;;;11.62;82.75;99392.75;2186019;40;19946;-79
2021/05/12 04:04:09;;;;;;;;;;;;;;;11.60;82.63;99394.78;2188587;40;20327;-79
2021/05/12 04:05:41;;;;;;;;;;;;;;;11.58;82.60;99386.06;2188490;40;19935;-81
2021/05/12 04:07:13;;;;;;;;;;;;;;;11.58;82.68;99383.41;2190682;40;19942;-80
2021/05/12 04:08:45;;;;;;;;;;;;;;;11.57;82.60;99389.75;2189626;40;20020;-80
2021/05/12 04:10:16;;;;;;;;;;;;;;;11.58;82.71;99390.56;2191617;40;19938;-80
2021/05/12 04:11:48;;;;;;;;;;;;;;;11.61;82.72;99403.63;2188720;40;19994;-80
2021/05/12 04:13:19;;;;;;;;;;;;;;;11.60;82.61;99399.28;2190669;40;19941;-81
2021/05/12 04:14:50;;;;;;;;;;;;;;;11.58;82.72;99395.94;2188760;40;19938;-81
2021/05/12 04:16:21;;;;;;;;;;;;;;;11.56;82.73;99398.78;2190062;40;19939;-80
2021/05/12 04:17:52;;;;;;;;;;;;;;;11.57;82.73;99400.47;2188429;40;19938;-80
2021/05/12 04:19:23;;;;;;;;;;;;;;;11.58;82.70;99396.78;2195758;40;19957;-80
2021/05/12 04:20:54;;;;;;;;;;;;;;;11.59;82.65;99402.97;2192668;40;19992;-80
2021/05/12 04:22:25;;;;;;;;;;;;;;;11.59;82.58;99402.97;2193630;40;19942;-81
2021/05/12 04:23:57;;;;;;;;;;;;;;;11.56;82.56;99401.47;2193620;40;19950;-80
2021/05/12 04:25:28;;;;;;;;;;;;;;;11.55;82.46;99402.47;2199685;40;19993;-80
2021/05/12 04:26:59;;;;;;;;;;;;;;;11.58;82.59;99401.28;2198551;40;19945;-80
2021/05/12 04:28:30;;;;;;;;;;;;;;;11.63;82.55;99399.78;2199800;40;20311;-79
2021/05/12 04:30:01;;;;;;;;;;;;;;;11.61;82.57;99400.94;2193903;40;19935;-81
2021/05/12 04:31:32;;;;;;;;;;;;;;;11.63;82.42;99401.63;2194193;40;20029;-80
2021/05/12 04:33:04;;;;;;;;;;;;;;;11.64;82.42;99398.78;2186814;40;19938;-80
2021/05/12 04:34:40;;;;;;;;;;;;;;;11.60;82.31;99396.59;2191010;40;20258;-80
2021/05/12 04:36:11;;;;;;;;;;;;;;;11.58;82.42;99394.09;2187547;40;19946;-81
2021/05/12 04:37:42;;;;;;;;;;;;;;;11.59;82.38;99392.25;2187590;40;19939;-81
2021/05/12 04:39:14;;;;;;;;;;;;;;;11.61;82.43;99391.09;2189924;40;19938;-79
2021/05/12 04:40:45;;;;;;;;;;;;;;;11.62;82.28;99391.91;2193762;40;19938;-80
2021/05/12 04:42:16;;;;;;;;;;;;;;;11.60;82.37;99388.56;2194409;40;20369;-80
2021/05/12 04:43:47;;;;;;;;;;;;;;;11.58;82.35;99386.06;2194487;40;19939;-78
2021/05/12 04:45:19;;;;;;;;;;;;;;;11.58;82.35;99396.78;2191880;40;19934;-78
2021/05/12 04:46:50;;;;;;;;;;;;;;;11.62;82.35;99389.25;2194033;40;19960;-80
2021/05/12 04:48:21;;;;;;;;;;;;;;;11.62;82.37;99398.09;2193126;40;19939;-79
2021/05/12 04:49:52;;;;;;;;;;;;;;;11.61;82.20;99396.44;2192776;40;19938;-79
2021/05/12 04:51:23;;;;;;;;;;;;;;;11.63;82.34;99399.78;2159803;40;19942;-80
2021/05/12 04:52:54;;;;;;;;;;;;;;;11.69;82.30;99403.63;2193239;40;19942;-79
2021/05/12 04:54:27;;;;;;;;;;;;;;;11.75;82.15;99397.63;2191301;40;19996;-79
2021/05/12 04:55:58;;;;;;;;;;;;;;;11.74;82.08;99408.47;2193323;40;20227;-80
2021/05/12 04:57:29;;;;;;;;;;;;;;;11.71;82.03;99412.34;2190811;40;19938;-79
2021/05/12 04:59:01;;;;;;;;;;;;;;;11.66;82.10;99412.84;2193463;40;20408;-80
2021/05/12 05:00:32;;;;;;;;;;;;;;;11.66;82.17;99414.69;2191484;40;19938;-79
2021/05/12 05:02:05;;;;;;;;;;;;;;;11.64;82.03;99414.00;2192673;40;19948;-80
2021/05/12 05:03:41;;;;;;;;;;;;;;;11.58;82.09;99415.53;2192346;40;19938;-79
2021/05/12 05:05:15;;;;;;;;;;;;;;;11.55;82.15;99424.72;2194116;40;19962;-79
2021/05/12 05:06:46;;;;;;;;;;;;;;;11.58;82.33;99420.03;2192234;40;19950;-78
2021/05/12 05:08:17;;;;;;;;;;;;;;;11.60;82.21;99420.69;2192996;40;19943;-80
2021/05/12 05:09:49;;;;;;;;;;;;;;;11.60;82.35;99416.19;2194536;40;19989;-78
2021/05/12 05:11:20;;;;;;;;;;;;;;;11.61;82.16;99417.88;2192209;40;21240;-80
2021/05/12 05:12:51;;;;;;;;;;;;;;;11.63;82.08;99415.84;2192487;40;19946;-79
2021/05/12 05:14:22;;;;;;;;;;;;;;;11.61;81.92;99412.50;2191606;40;19942;-79
2021/05/12 05:15:53;;;;;;;;;;;;;;;11.60;82.05;99416.19;2194786;40;19939;-78
2021/05/12 05:17:25;;;;;;;;;;;;;;;11.57;82.06;99418.38;2193188;40;20176;-80
2021/05/12 05:18:56;;;;;;;;;;;;;;;11.58;82.05;99426.22;2194810;40;19937;-78
2021/05/12 05:20:29;;;;;;;;;;;;;;;11.60;82.01;99426.06;2193461;40;20540;-80
2021/05/12 05:22:00;;;;;;;;;;;;;;;11.59;81.90;99427.06;2194402;40;19938;-80
2021/05/12 05:23:32;;;;;;;;;;;;;;;11.55;81.79;99424.72;2192992;40;19941;-80
2021/05/12 05:25:04;;;;;;;;;;;;;;;11.61;81.89;99433.94;2186594;40;19974;-80
2021/05/12 05:26:35;;;;;;;;;;;;;;;11.62;81.69;99429.41;2187470;40;20306;-79
2021/05/12 05:28:06;;;;;;;;;;;;;;;11.66;81.73;99433.44;2188392;40;19938;-78
2021/05/12 05:29:37;;;;;;;;;;;;;;;11.69;81.60;99435.75;2187816;40;19962;-78
2021/05/12 05:31:08;;;;;;;;;;;;;;;11.69;81.43;99438.44;2188884;40;19939;-79
2021/05/12 05:32:39;;;;;;;;;;;;;;;11.67;81.41;99441.28;2187369;40;20248;-81
2021/05/12 05:34:10;;;;;;;;;;;;;;;11.66;81.37;99441.47;2194936;40;19934;-79
2021/05/12 05:35:41;;;;;;;;;;;;;;;11.61;81.27;99450.00;2185141;40;19950;-79
2021/05/12 05:37:12;;;;;;;;;;;;;;;11.66;81.38;99449.50;2187991;40;20026;-80
2021/05/12 05:38:43;;;;;;;;;;;;;;;11.64;81.15;99449.66;2185906;40;19931;-79
2021/05/12 05:40:15;;;;;;;;;;;;;;;11.64;81.25;99452.31;2188932;40;19953;-80
2021/05/12 05:41:46;;;;;;;;;;;;;;;11.70;81.14;99446.31;2186062;40;19938;-79
2021/05/12 05:43:18;;;;;;;;;;;;;;;11.77;81.00;99457.19;2187293;40;20286;-80
2021/05/12 05:44:49;;;;;;;;;;;;;;;11.78;80.93;99463.38;2186365;40;19939;-81
2021/05/12 05:46:20;;;;;;;;;;;;;;;11.77;80.82;99456.34;2188143;40;19934;-79
2021/05/12 05:47:50;;;;;;;;;;;;;;;11.73;80.60;99460.34;2186309;40;19997;-79
2021/05/12 05:49:22;;;;;;;;;;;;;;;11.65;80.55;99456.69;2187365;40;19934;-79
2021/05/12 05:50:53;;;;;;;;;;;;;;;11.65;80.75;99455.84;2186243;40;19947;-79
2021/05/12 05:52:24;;;;;;;;;;;;;;;11.69;80.71;99463.38;2187570;40;19942;-79
2021/05/12 05:53:55;;;;;;;;;;;;;;;11.69;80.65;99457.19;2175251;40;19999;-81
2021/05/12 05:55:27;;;;;;;;;;;;;;;11.62;80.42;99457.00;2180414;40;19943;-80
2021/05/12 05:57:04;;;;;;;;;;;;;;;11.58;80.59;99458.34;2184336;40;19935;-80
2021/05/12 05:58:35;;;;;;;;;;;;;;;11.57;80.61;99470.06;2184892;40;19927;-80
2021/05/12 06:00:06;;;;;;;;;;;;;;;11.55;80.47;99458.66;2184511;40;19938;-79
2021/05/12 06:01:37;;;;;;;;;;;;;;;11.54;80.48;99459.66;2187960;40;19934;-79
2021/05/12 06:03:09;;;;;;;;;;;;;;;11.58;80.59;99463.69;2184839;40;19947;-80
2021/05/12 06:04:39;;;;;;;;;;;;;;;11.66;80.62;99471.75;2187942;40;19938;-80
2021/05/12 06:06:10;;;;;;;;;;;;;;;11.75;80.42;99467.25;2185454;40;19945;-79
2021/05/12 06:07:41;;;;;;;;;;;;;;;11.77;80.23;99467.88;2186834;40;19950;-80
2021/05/12 06:09:12;;;;;;;;;;;;;;;11.76;79.96;99468.06;2185679;40;19962;-79
2021/05/12 06:10:44;;;;;;;;;;;;;;;11.73;79.89;99469.25;2187024;40;19950;-79
2021/05/12 06:12:15;;;;;;;;;;;;;;;11.74;80.05;99472.75;2185464;40;19950;-80
2021/05/12 06:13:48;;;;;;;;;;;;;;;11.77;80.03;99465.22;2186565;40;19942;-79
2021/05/12 06:15:20;;;;;;;;;;;;;;;11.76;79.65;99468.06;2185242;40;19961;-79
2021/05/12 06:16:51;;;;;;;;;;;;;;;11.75;79.61;99466.38;2185997;40;19950;-79
2021/05/12 06:18:22;;;;;;;;;;;;;;;11.71;79.42;99477.41;2184879;40;19945;-79
2021/05/12 06:19:53;;;;;;;;;;;;;;;11.65;79.40;99464.72;2186013;40;19942;-79
2021/05/12 06:21:25;;;;;;;;;;;;;;;11.62;79.59;99472.22;2136019;40;19934;-81
2021/05/12 06:23:01;;;;;;;;;;;;;;;11.62;79.48;99470.38;2186454;40;19945;-79
2021/05/12 06:24:32;;;;;;;;;;;;;;;11.61;79.29;99474.09;2189289;40;19930;-80
2021/05/12 06:26:12;;;;;;;;;;;;;;;11.60;79.43;99475.09;2193402;40;19934;-80
2021/05/12 06:27:44;;;;;;;;;;;;;;;11.67;79.43;99480.59;2191810;40;19938;-79
2021/05/12 06:29:15;;;;;;;;;;;;;;;11.64;79.11;99484.44;2192636;40;19938;-78
2021/05/12 06:30:49;;;;;;;;;;;;;;;11.68;79.11;99483.13;2192143;40;19945;-79
2021/05/12 06:32:20;;;;;;;;;;;;;;;11.66;78.82;99486.97;2193008;40;19946;-79
2021/05/12 06:33:51;;;;;;;;;;;;;;;11.62;78.76;99481.09;2199421;40;19930;-78
2021/05/12 06:35:22;;;;;;;;;;;;;;;11.62;78.76;99482.94;2190812;40;19941;-78
2021/05/12 06:36:53;;;;;;;;;;;;;;;11.59;78.86;99476.09;2193379;40;19943;-80
2021/05/12 06:38:24;;;;;;;;;;;;;;;11.59;78.91;99476.09;2192432;40;19938;-79
2021/05/12 06:39:55;;;;;;;;;;;;;;;11.63;78.93;99474.75;2193951;40;19946;-79
2021/05/12 06:41:30;;;;;;;;;;;;;;;11.62;78.84;99475.75;2192690;40;19946;-78
2021/05/12 06:43:02;;;;;;;;;;;;;;;11.60;78.71;99467.06;2191083;40;20448;-80
2021/05/12 06:44:35;;;;;;;;;;;;;;;11.64;78.87;99478.28;2196060;40;20374;-79
2021/05/12 06:46:07;;;;;;;;;;;;;;;11.69;78.76;99470.56;2190853;40;19938;-80
2021/05/12 06:47:38;;;;;;;;;;;;;;;11.68;78.50;99472.41;2190843;40;19965;-79
2021/05/12 06:49:10;;;;;;;;;;;;;;;11.76;78.50;99473.41;2192574;40;20238;-80
2021/05/12 06:50:41;;;;;;;;;;;;;;;11.74;78.13;99472.75;2190898;40;19938;-79
2021/05/12 06:52:12;;;;;;;;;;;;;;;11.74;78.17;99470.91;2195899;40;19942;-76
2021/05/12 06:53:43;;;;;;;;;;;;;;;11.79;78.17;99473.91;2190787;40;19938;-78
2021/05/12 06:55:14;;;;;;;;;;;;;;;11.77;77.83;99469.75;2192493;40;19953;-78
2021/05/12 06:56:46;;;;;;;;;;;;;;;11.70;77.81;99470.41;2191653;40;19934;-77
2021/05/12 06:58:18;;;;;;;;;;;;;;;11.68;77.86;99471.56;2193744;40;19934;-77
2021/05/12 06:59:49;;;;;;;;;;;;;;;11.65;77.94;99467.38;2190832;40;19954;-78
2021/05/12 07:01:20;;;;;;;;;;;;;;;11.66;77.96;99469.06;2192985;40;19942;-79
2021/05/12 07:02:51;;;;;;;;;;;;;;;11.70;78.06;99474.91;2186490;40;19942;-78
2021/05/12 07:04:22;;;;;;;;;;;;;;;11.68;77.88;99471.56;2186365;40;20048;-79
2021/05/12 07:05:53;;;;;;;;;;;;;;;11.64;77.94;99471.06;2186375;40;19938;-79
2021/05/12 07:07:24;;;;;;;;;;;;;;;11.74;78.05;99480.78;2192706;40;19942;-79
2021/05/12 07:08:56;;;;;;;;;;;;;;;11.77;77.90;99475.09;2192228;40;19941;-78
2021/05/12 07:10:26;;;;;;;;;;;;;;;11.76;77.57;99478.78;2191606;40;20462;-78
2021/05/12 07:11:58;;;;;;;;;;;;;;;11.69;77.53;99479.44;2187645;40;19955;-79
2021/05/12 07:13:29;;;;;;;;;;;;;;;11.67;77.68;99478.78;2192816;40;20039;-80
2021/05/12 07:15:01;;;;;;;;;;;;;;;11.66;77.79;99474.41;2190463;40;19935;-78
2021/05/12 07:16:32;;;;;;;;;;;;;;;11.68;77.84;99471.56;2178681;41;20706;-78
2021/05/12 07:18:03;;;;;;;;;;;;;;;11.71;77.68;99468.56;2183137;40;20302;-80
2021/05/12 07:19:34;;;;;;;;;;;;;;;11.74;77.74;99470.06;2192665;40;19937;-77
2021/05/12 07:21:06;;;;;;;;;;;;;;;11.81;77.58;99476.41;2189016;40;20041;-78
2021/05/12 07:22:37;;;;;;;;;;;;;;;11.80;77.50;99483.63;2186582;40;19939;-79
2021/05/12 07:24:08;;;;;;;;;;;;;;;11.87;77.48;99483.81;2176637;40;19943;-80
2021/05/12 07:25:38;;;;;;;;;;;;;;;11.90;77.15;99480.81;2187048;40;19934;-80
2021/05/12 07:27:11;;;;;;;;;;;;;;;11.87;77.00;99481.13;2185534;40;19953;-80
2021/05/12 07:28:45;;;;;;;;;;;;;;;11.89;76.99;99489.84;2187464;40;19943;-79
2021/05/12 07:30:16;;;;;;;;;;;;;;;11.92;76.99;99489.50;2185635;40;20412;-78
2021/05/12 07:31:47;;;;;;;;;;;;;;;11.94;76.97;99487.47;2187510;40;20547;-80
2021/05/12 07:33:18;;;;;;;;;;;;;;;11.95;77.20;99488.34;2160417;40;19947;-79
2021/05/12 07:34:52;;;;;;;;;;;;;;;12.01;76.96;99476.97;2186874;40;19939;-79
2021/05/12 07:36:22;;;;;;;;;;;;;;;11.91;76.58;99479.78;2185157;40;19938;-79
2021/05/12 07:37:53;;;;;;;;;;;;;;;11.88;76.79;99484.63;2186133;40;19974;-79
2021/05/12 07:39:26;;;;;;;;;;;;;;;11.86;77.08;99474.91;2186230;40;19934;-78
2021/05/12 07:41:00;;;;;;;;;;;;;;;11.89;77.26;99468.41;2186622;40;19999;-79
2021/05/12 07:42:34;;;;;;;;;;;;;;;11.86;76.94;99468.75;2182469;40;19978;-80
2021/05/12 07:44:05;;;;;;;;;;;;;;;11.92;77.08;99477.94;2186326;40;19957;-79
2021/05/12 07:45:37;;;;;;;;;;;;;;;11.93;77.18;99475.09;2185711;40;20288;-79
2021/05/12 07:47:08;;;;;;;;;;;;;;;11.94;77.12;99473.28;2186108;40;19954;-79
2021/05/12 07:48:39;;;;;;;;;;;;;;;11.91;76.92;99466.38;2184933;40;19938;-78
2021/05/12 07:50:10;;;;;;;;;;;;;;;11.92;76.54;99465.38;2181190;40;20212;-79
2021/05/12 07:51:41;;;;;;;;;;;;;;;11.90;76.54;99471.91;2175950;40;19945;-77
2021/05/12 07:53:13;;;;;;;;;;;;;;;11.88;76.18;99471.25;2187393;40;19946;-79
2021/05/12 07:54:44;;;;;;;;;;;;;;;11.87;76.51;99470.41;2185189;40;19961;-78
2021/05/12 07:56:15;;;;;;;;;;;;;;;11.89;76.40;99468.41;2186906;40;19954;-78
2021/05/12 07:57:47;;;;;;;;;;;;;;;11.93;76.23;99464.38;2185997;40;19941;-80